Time;durP1;ratioP1;P1;durP2;ratioP2;P2;SDS_P1;SDS_P2;PMS_P1;PMS_P2;Temp;Humidity;BMP_temperature;BMP_pressure;BME280_temperature;BME280_humidity;BME280_pressure;Samples;Min_cycle;Max_cycle;Signal;HPM_P1;HPM_P2
2022/06/15 00:01:02;;;;;;;1.40;0.80;;;18.10;59.20;;;;;;5090069;28;20085;-63
2022/06/15 00:03:30;;;;;;;1.05;1.05;;;18.10;59.30;;;;;;5083717;28;20086;-62
2022/06/15 00:06:27;;;;;;;1.58;0.80;;;18.00;59.20;;;;;;5085972;28;20390;-61
2022/06/15 00:08:57;;;;;;;1.17;0.93;;;18.00;59.30;;;;;;5080977;28;20059;-61
2022/06/15 00:11:25;;;;;;;1.75;0.93;;;18.00;59.40;;;;;;5084613;28;20470;-61
2022/06/15 00:13:53;;;;;;;0.82;0.70;;;17.90;59.60;;;;;;5086470;28;20450;-61
2022/06/15 00:16:20;;;;;;;0.50;0.50;;;17.90;59.60;;;;;;5089596;28;20016;-61
2022/06/15 00:18:46;;;;;;;3.50;0.93;;;17.90;59.70;;;;;;5087421;28;20028;-61
2022/06/15 00:21:13;;;;;;;0.60;0.60;;;17.80;59.60;;;;;;5092019;28;20104;-61
2022/06/15 00:23:39;;;;;;;0.63;0.60;;;17.80;59.70;;;;;;5080478;28;20020;-61
2022/06/15 00:26:05;;;;;;;0.60;0.60;;;17.80;59.80;;;;;;5094825;28;20066;-61
2022/06/15 00:28:33;;;;;;;0.95;0.85;;;17.80;59.80;;;;;;5082017;28;20077;-61
2022/06/15 00:30:59;;;;;;;1.27;0.90;;;17.80;59.80;;;;;;5095823;28;20371;-62
2022/06/15 00:33:26;;;;;;;0.75;0.60;;;17.80;59.80;;;;;;5099579;28;20039;-61
2022/06/15 00:35:57;;;;;;;0.60;0.60;;;17.80;59.80;;;;;;5091956;28;20052;-62
2022/06/15 00:38:45;;;;;;;0.77;0.77;;;17.80;59.90;;;;;;5084820;28;20084;-61
2022/06/15 00:41:13;;;;;;;4.18;1.10;;;17.80;60.00;;;;;;5098755;28;20023;-61
2022/06/15 00:43:42;;;;;;;1.52;0.77;;;17.70;60.00;;;;;;5079589;28;20498;-61
2022/06/15 00:46:13;;;;;;;2.05;0.88;;;17.70;60.00;;;;;;5081759;28;20130;-61
2022/06/15 00:48:41;;;;;;;3.35;0.80;;;17.70;60.00;;;;;;5086867;28;20463;-61
2022/06/15 00:51:06;;;;;;;0.65;0.65;;;17.60;60.00;;;;;;5085944;28;20027;-62
2022/06/15 00:53:32;;;;;;;0.47;0.45;;;17.60;60.20;;;;;;5081218;28;20372;-61
2022/06/15 00:55:58;;;;;;;1.50;0.90;;;17.50;60.30;;;;;;5081391;28;20028;-61
2022/06/15 00:58:24;;;;;;;5.65;1.02;;;17.50;60.30;;;;;;5081050;28;20036;-62
2022/06/15 01:00:53;;;;;;;3.67;0.88;;;17.50;60.40;;;;;;5089068;28;20042;-63
2022/06/15 01:03:20;;;;;;;0.50;0.50;;;17.50;60.50;;;;;;5077622;28;20403;-63
2022/06/15 01:06:11;;;;;;;1.50;0.60;;;17.50;60.50;;;;;;5087442;28;20052;-64
2022/06/15 01:09:14;;;;;;;1.70;0.82;;;17.50;60.60;;;;;;5085823;28;20093;-64
2022/06/15 01:11:46;;;;;;;0.80;0.70;;;17.50;60.70;;;;;;5074923;28;20103;-63
2022/06/15 01:14:16;;;;;;;2.53;1.20;;;17.40;60.70;;;;;;5087396;28;20567;-63
2022/06/15 01:16:49;;;;;;;0.73;0.68;;;17.40;60.80;;;;;;5081778;28;20568;-63
2022/06/15 01:19:42;;;;;;;0.80;0.75;;;17.40;60.80;;;;;;5078725;28;20028;-63
2022/06/15 01:22:35;;;;;;;3.72;1.13;;;17.40;60.90;;;;;;5089731;28;20024;-62
2022/06/15 01:25:16;;;;;;;0.73;0.73;;;17.30;61.00;;;;;;5090216;28;20024;-63
2022/06/15 01:28:07;;;;;;;2.70;0.95;;;17.30;61.00;;;;;;5091565;28;20103;-62
2022/06/15 01:30:48;;;;;;;1.45;0.57;;;17.20;61.10;;;;;;5097462;28;20506;-63
2022/06/15 01:33:23;;;;;;;1.05;0.80;;;17.20;61.30;;;;;;5095975;28;20462;-64
2022/06/15 01:36:22;;;;;;;2.70;0.82;;;17.20;61.30;;;;;;5081532;28;20028;-62
2022/06/15 01:39:09;;;;;;;1.20;0.90;;;17.20;61.40;;;;;;5087882;28;20073;-61
2022/06/15 01:41:43;;;;;;;0.75;0.75;;;17.10;61.50;;;;;;5087640;28;20058;-62
2022/06/15 01:44:18;;;;;;;1.38;0.85;;;17.00;61.50;;;;;;5079987;28;20025;-62
2022/06/15 01:46:46;;;;;;;1.52;1.08;;;17.00;61.60;;;;;;5083932;28;20568;-62
2022/06/15 01:49:27;;;;;;;0.90;0.75;;;17.00;61.70;;;;;;5094520;28;20028;-63
2022/06/15 01:51:55;;;;;;;1.23;0.85;;;17.00;61.70;;;;;;5079450;28;20020;-63
2022/06/15 01:54:27;;;;;;;0.70;0.70;;;17.00;61.70;;;;;;5096245;28;20042;-63
2022/06/15 01:56:55;;;;;;;0.70;0.70;;;16.90;61.70;;;;;;5092791;28;20027;-62
2022/06/15 01:59:27;;;;;;;1.15;0.75;;;16.90;61.90;;;;;;5073980;28;20059;-62
2022/06/15 02:02:06;;;;;;;;;;;16.90;61.90;;;;;;5078736;28;20109;-62
2022/06/15 02:04:50;;;;;;;0.80;0.52;;;16.90;62.00;;;;;;5078633;28;19961;-62
2022/06/15 02:07:40;;;;;;;1.13;0.80;;;16.80;62.00;;;;;;5075044;28;20169;-63
2022/06/15 02:10:09;;;;;;;0.60;0.60;;;16.80;62.10;;;;;;5081560;28;20063;-63
2022/06/15 02:12:51;;;;;;;0.70;0.70;;;16.70;62.20;;;;;;5084699;28;20363;-63
2022/06/15 02:15:25;;;;;;;1.90;0.75;;;16.70;62.30;;;;;;5094000;28;20089;-63
2022/06/15 02:17:52;;;;;;;3.60;0.95;;;16.60;62.50;;;;;;5075745;28;20115;-63
2022/06/15 02:20:35;;;;;;;1.25;0.70;;;16.60;62.60;;;;;;5087809;28;20043;-63
2022/06/15 02:23:04;;;;;;;1.48;0.93;;;16.60;62.60;;;;;;5086431;28;20111;-63
2022/06/15 02:25:36;;;;;;;1.15;0.95;;;16.50;63.20;;;;;;5085259;28;20393;-63
2022/06/15 02:28:03;;;;;;;2.42;0.75;;;16.50;62.80;;;;;;5100011;28;20032;-63
2022/06/15 02:30:31;;;;;;;0.80;0.80;;;16.40;62.90;;;;;;5090018;28;20076;-63
2022/06/15 02:33:02;;;;;;;1.95;1.10;;;16.40;62.90;;;;;;5086509;28;20088;-61
2022/06/15 02:35:28;;;;;;;1.35;0.85;;;16.40;63.00;;;;;;5085507;28;20051;-62
2022/06/15 02:37:54;;;;;;;1.10;0.68;;;16.40;63.10;;;;;;5090034;28;20032;-61
2022/06/15 02:40:22;;;;;;;0.57;0.57;;;16.40;63.20;;;;;;5081975;28;20028;-61
2022/06/15 02:42:49;;;;;;;1.23;0.82;;;16.40;63.20;;;;;;5080089;28;20115;-62
2022/06/15 02:45:18;;;;;;;0.63;0.55;;;16.40;63.30;;;;;;5098390;28;20588;-61
2022/06/15 02:47:44;;;;;;;2.42;0.80;;;16.30;63.20;;;;;;5080592;28;20086;-62
2022/06/15 02:50:13;;;;;;;0.50;0.50;;;16.30;63.30;;;;;;5086478;28;20528;-62
2022/06/15 02:52:43;;;;;;;1.95;0.93;;;16.30;63.50;;;;;;5092869;28;20048;-63
2022/06/15 02:55:11;;;;;;;0.63;0.63;;;16.30;63.40;;;;;;5084833;28;20028;-63
2022/06/15 02:58:11;;;;;;;0.95;0.85;;;16.20;63.40;;;;;;5082500;28;20045;-63
2022/06/15 03:00:38;;;;;;;2.50;0.80;;;16.30;63.60;;;;;;5070614;28;20051;-62
2022/06/15 03:03:04;;;;;;;1.20;0.77;;;16.20;63.50;;;;;;5091538;28;20032;-63
2022/06/15 03:05:30;;;;;;;0.60;0.60;;;16.20;63.60;;;;;;5090398;28;20122;-63
2022/06/15 03:07:56;;;;;;;1.27;0.80;;;16.10;63.70;;;;;;5095011;28;20028;-63
2022/06/15 03:10:22;;;;;;;1.30;1.20;;;16.10;63.80;;;;;;5098765;28;20027;-64
2022/06/15 03:12:48;;;;;;;2.88;0.90;;;16.10;63.90;;;;;;5081839;28;20085;-62
2022/06/15 03:15:14;;;;;;;0.75;0.75;;;16.10;64.00;;;;;;5086260;28;20024;-63
2022/06/15 03:17:40;;;;;;;2.72;0.70;;;16.00;63.90;;;;;;5088233;28;20028;-62
2022/06/15 03:20:07;;;;;;;0.75;0.73;;;16.00;64.00;;;;;;5093289;28;20032;-63
2022/06/15 03:22:33;;;;;;;0.77;0.73;;;16.00;64.10;;;;;;5084288;28;20064;-64
2022/06/15 03:24:59;;;;;;;4.03;1.15;;;16.00;64.10;;;;;;5090271;28;20659;-64
2022/06/15 03:27:25;;;;;;;0.90;0.90;;;16.00;64.20;;;;;;5079864;28;20116;-63
2022/06/15 03:29:50;;;;;;;0.50;0.50;;;15.90;64.20;;;;;;5093725;28;20122;-63
2022/06/15 03:32:17;;;;;;;0.80;0.80;;;15.90;64.90;;;;;;5088066;28;20086;-63
2022/06/15 03:34:43;;;;;;;0.57;0.57;;;15.90;64.30;;;;;;5084864;28;20048;-62
2022/06/15 03:37:09;;;;;;;0.82;0.60;;;15.90;64.40;;;;;;5072888;28;20418;-63
2022/06/15 03:39:36;;;;;;;0.60;0.60;;;15.90;64.40;;;;;;5081681;28;20025;-62
2022/06/15 03:42:15;;;;;;;1.02;0.60;;;15.90;64.50;;;;;;5089508;28;20036;-62
2022/06/15 03:44:40;;;;;;;2.20;1.27;;;15.90;64.70;;;;;;5095951;28;20363;-62
2022/06/15 03:47:17;;;;;;;0.75;0.70;;;15.80;64.80;;;;;;5087938;28;20089;-62
2022/06/15 03:49:43;;;;;;;0.88;0.77;;;15.80;64.80;;;;;;5093547;28;20428;-61
2022/06/15 03:52:10;;;;;;;0.73;0.70;;;15.80;64.90;;;;;;5071813;28;20029;-62
2022/06/15 03:54:36;;;;;;;0.85;0.80;;;15.80;64.90;;;;;;5078130;28;20039;-62
2022/06/15 03:57:03;;;;;;;0.65;0.65;;;15.90;65.10;;;;;;5092594;28;20053;-61
2022/06/15 03:59:30;;;;;;;0.47;0.47;;;15.80;65.10;;;;;;5092429;28;20040;-61
2022/06/15 04:01:56;;;;;;;2.85;0.93;;;15.80;65.10;;;;;;5103836;28;20402;-61
2022/06/15 04:04:21;;;;;;;4.63;1.38;;;15.80;65.10;;;;;;5089587;28;20055;-61
2022/06/15 04:06:49;;;;;;;0.40;0.40;;;15.90;65.30;;;;;;5092975;28;20035;-63
2022/06/15 04:09:21;;;;;;;0.70;0.70;;;15.90;65.30;;;;;;5083010;28;20028;-63
2022/06/15 04:12:01;;;;;;;1.13;0.80;;;15.90;65.30;;;;;;5094536;28;20046;-63
2022/06/15 04:14:31;;;;;;;1.08;0.82;;;15.90;65.30;;;;;;5073651;28;20037;-63
2022/06/15 04:16:57;;;;;;;0.70;0.70;;;16.00;65.40;;;;;;5079922;28;21350;-61
2022/06/15 04:19:26;;;;;;;2.20;0.73;;;16.00;65.40;;;;;;5083409;28;20032;-61
2022/06/15 04:21:51;;;;;;;0.60;0.50;;;16.00;65.50;;;;;;5080859;28;20051;-61
2022/06/15 04:24:18;;;;;;;1.02;0.80;;;16.10;65.40;;;;;;5077853;28;20254;-61
2022/06/15 04:26:45;;;;;;;1.02;0.82;;;16.20;65.40;;;;;;5076088;28;20043;-63
2022/06/15 04:29:11;;;;;;;1.20;0.88;;;16.30;65.50;;;;;;5078620;28;20020;-63
2022/06/15 04:31:38;;;;;;;0.52;0.52;;;16.30;65.60;;;;;;5087261;28;20069;-63
2022/06/15 04:34:05;;;;;;;1.17;0.98;;;16.40;65.60;;;;;;5071067;28;20051;-63
2022/06/15 04:36:31;;;;;;;0.60;0.60;;;16.40;65.60;;;;;;5075570;28;20036;-61
2022/06/15 04:38:57;;;;;;;0.80;0.60;;;16.50;65.70;;;;;;5066888;28;20039;-61
2022/06/15 04:41:23;;;;;;;0.73;0.70;;;16.50;65.60;;;;;;5080606;28;20028;-61
2022/06/15 04:43:48;;;;;;;1.13;0.77;;;16.60;65.50;;;;;;5089283;28;20081;-61
2022/06/15 04:46:14;;;;;;;1.02;0.57;;;16.70;65.40;;;;;;5081810;28;20032;-61
2022/06/15 04:48:41;;;;;;;0.40;0.40;;;16.70;65.40;;;;;;5079788;28;20031;-61
2022/06/15 04:51:13;;;;;;;1.40;0.45;;;16.80;65.30;;;;;;5080136;28;20382;-61
2022/06/15 04:53:39;;;;;;;1.38;0.88;;;16.90;65.20;;;;;;5081106;28;20115;-61
2022/06/15 04:56:05;;;;;;;0.40;0.40;;;16.90;65.10;;;;;;5086043;28;20432;-61
2022/06/15 04:58:31;;;;;;;1.10;0.73;;;17.00;65.10;;;;;;5087779;28;20093;-61
2022/06/15 05:00:57;;;;;;;0.50;0.50;;;17.10;65.00;;;;;;5087509;28;20375;-61
2022/06/15 05:03:23;;;;;;;0.50;0.50;;;17.10;64.70;;;;;;5073943;28;20052;-61
2022/06/15 05:05:55;;;;;;;1.23;0.82;;;17.20;64.60;;;;;;5080185;28;20040;-61
2022/06/15 05:08:21;;;;;;;0.82;0.50;;;17.30;65.10;;;;;;5075171;28;20055;-62
2022/06/15 05:10:46;;;;;;;0.80;0.73;;;17.40;64.40;;;;;;5087750;28;20074;-61
2022/06/15 05:13:12;;;;;;;0.85;0.60;;;17.40;64.20;;;;;;5081395;28;20020;-61
2022/06/15 05:15:38;;;;;;;0.60;0.55;;;17.50;64.00;;;;;;5085751;28;20050;-61
2022/06/15 05:18:06;;;;;;;5.38;0.80;;;17.60;63.90;;;;;;5074165;28;20667;-61
2022/06/15 05:20:35;;;;;;;1.13;0.60;;;17.70;63.70;;;;;;5076534;28;20600;-62
2022/06/15 05:23:00;;;;;;;0.40;0.40;;;17.70;63.50;;;;;;5077744;28;20141;-61
2022/06/15 05:25:27;;;;;;;1.08;0.68;;;17.70;63.40;;;;;;5080759;28;20474;-61
2022/06/15 05:27:52;;;;;;;1.33;0.60;;;17.80;63.30;;;;;;5082685;28;20024;-63
2022/06/15 05:30:18;;;;;;;1.10;0.73;;;17.90;63.30;;;;;;5086350;28;20072;-61
2022/06/15 05:32:44;;;;;;;0.50;0.50;;;17.90;63.00;;;;;;5088732;28;20042;-62
2022/06/15 05:35:10;;;;;;;1.20;0.70;;;17.90;62.90;;;;;;5086762;28;20020;-61
2022/06/15 05:37:36;;;;;;;0.57;0.57;;;18.00;62.80;;;;;;5085027;28;20027;-63
2022/06/15 05:40:02;;;;;;;0.80;0.80;;;18.00;62.70;;;;;;5082356;28;20150;-64
2022/06/15 05:42:28;;;;;;;1.25;0.80;;;18.10;62.70;;;;;;5089831;28;20465;-63
2022/06/15 05:44:55;;;;;;;0.55;0.40;;;18.20;62.50;;;;;;5088146;28;20119;-64
2022/06/15 05:47:20;;;;;;;4.32;1.08;;;18.30;62.50;;;;;;5085392;28;20036;-63
2022/06/15 05:49:46;;;;;;;1.20;0.82;;;18.30;62.30;;;;;;5091594;28;20483;-63
2022/06/15 05:52:12;;;;;;;0.80;0.73;;;18.30;62.10;;;;;;5087252;28;20430;-62
2022/06/15 05:54:38;;;;;;;1.13;0.80;;;18.40;62.10;;;;;;5088212;28;20063;-64
2022/06/15 05:57:18;;;;;;;0.60;0.60;;;18.40;62.00;;;;;;5086295;28;20116;-64
2022/06/15 05:59:48;;;;;;;0.52;0.40;;;18.50;61.90;;;;;;5084789;28;20051;-64
2022/06/15 06:02:15;;;;;;;0.82;0.50;;;18.60;61.80;;;;;;5094950;28;20561;-63
2022/06/15 06:04:41;;;;;;;0.63;0.63;;;18.70;61.60;;;;;;5088269;28;20039;-63
2022/06/15 06:07:09;;;;;;;0.55;0.45;;;18.80;61.50;;;;;;5087886;28;20093;-62
2022/06/15 06:09:35;;;;;;;0.40;0.40;;;18.80;61.30;;;;;;5090181;28;20032;-61
2022/06/15 06:12:01;;;;;;;0.95;0.63;;;18.90;61.20;;;;;;5088668;28;20024;-62
2022/06/15 06:14:26;;;;;;;0.40;0.40;;;19.00;61.00;;;;;;5086758;28;20446;-62
2022/06/15 06:16:54;;;;;;;0.50;0.50;;;19.10;60.90;;;;;;5077290;28;20064;-61
2022/06/15 06:19:20;;;;;;;0.57;0.50;;;19.10;60.70;;;;;;5078206;28;20029;-62
2022/06/15 06:21:46;;;;;;;1.45;0.70;;;19.20;60.60;;;;;;5088974;28;20120;-62
2022/06/15 06:24:12;;;;;;;0.68;0.60;;;19.30;60.40;;;;;;5074723;28;20021;-62
2022/06/15 06:26:38;;;;;;;0.68;0.43;;;19.40;60.20;;;;;;5090147;28;20043;-62
2022/06/15 06:29:06;;;;;;;0.75;0.65;;;19.40;60.10;;;;;;5071876;28;20020;-62
2022/06/15 06:31:32;;;;;;;0.50;0.50;;;19.50;60.00;;;;;;5074432;28;20432;-61
2022/06/15 06:33:58;;;;;;;2.80;0.68;;;19.60;60.00;;;;;;5089026;28;20028;-62
2022/06/15 06:36:53;;;;;;;0.45;0.45;;;19.60;59.80;;;;;;5071247;28;20059;-64
2022/06/15 06:39:21;;;;;;;1.85;0.93;;;19.70;60.30;;;;;;5067047;28;20056;-64
2022/06/15 06:41:47;;;;;;;0.30;0.30;;;19.80;59.60;;;;;;5075673;28;20500;-63
2022/06/15 06:44:13;;;;;;;0.52;0.52;;;19.80;59.40;;;;;;5088969;28;20082;-64
2022/06/15 06:46:43;;;;;;;0.50;0.50;;;19.90;59.30;;;;;;5095511;28;20036;-62
2022/06/15 06:49:09;;;;;;;0.50;0.50;;;19.90;59.10;;;;;;5084878;28;20099;-62
2022/06/15 06:51:36;;;;;;;4.28;1.02;;;20.00;59.00;;;;;;5090904;28;20056;-61
2022/06/15 06:54:03;;;;;;;0.68;0.60;;;20.10;58.90;;;;;;5077451;28;20499;-62
2022/06/15 06:56:29;;;;;;;0.40;0.40;;;20.20;58.70;;;;;;5100225;28;20032;-64
2022/06/15 06:58:54;;;;;;;0.30;0.30;;;20.30;58.60;;;;;;5091483;28;20111;-64
2022/06/15 07:01:20;;;;;;;3.50;0.68;;;20.30;58.40;;;;;;5084295;28;20479;-63
2022/06/15 07:03:47;;;;;;;1.40;0.73;;;20.40;58.30;;;;;;5070986;28;20441;-62
2022/06/15 07:06:13;;;;;;;0.50;0.50;;;20.50;58.20;;;;;;5093025;28;20451;-62
2022/06/15 07:08:39;;;;;;;0.63;0.60;;;20.50;57.90;;;;;;5068927;28;20052;-63
2022/06/15 07:11:14;;;;;;;0.45;0.35;;;20.60;57.70;;;;;;5082193;28;20085;-62
2022/06/15 07:13:40;;;;;;;0.47;0.45;;;20.70;57.70;;;;;;5071112;28;20031;-62
2022/06/15 07:16:07;;;;;;;0.40;0.40;;;20.80;57.40;;;;;;5092116;28;20474;-62
2022/06/15 07:18:33;;;;;;;1.92;0.77;;;20.80;57.20;;;;;;5065694;28;20039;-62
2022/06/15 07:21:11;;;;;;;0.50;0.50;;;20.90;57.00;;;;;;5082909;28;20033;-63
2022/06/15 07:23:41;;;;;;;1.13;0.73;;;21.00;56.60;;;;;;5076146;28;20025;-61
2022/06/15 07:26:11;;;;;;;0.75;0.75;;;21.10;56.30;;;;;;5086183;28;20029;-62
2022/06/15 07:28:38;;;;;;;0.38;0.38;;;21.20;56.10;;;;;;5075468;28;20024;-61
2022/06/15 07:31:04;;;;;;;1.55;0.80;;;21.30;55.60;;;;;;5076575;28;20049;-63
2022/06/15 07:33:30;;;;;;;0.60;0.40;;;21.40;55.30;;;;;;5084124;28;20035;-62
2022/06/15 07:35:56;;;;;;;0.60;0.50;;;21.50;55.10;;;;;;5077818;28;20031;-63
2022/06/15 07:38:22;;;;;;;0.40;0.40;;;21.50;54.80;;;;;;5079029;28;20017;-63
2022/06/15 07:40:49;;;;;;;0.70;0.50;;;21.60;54.60;;;;;;5076656;28;20395;-63
2022/06/15 07:43:15;;;;;;;1.00;0.80;;;21.70;54.30;;;;;;5068508;28;20749;-64
2022/06/15 07:45:41;;;;;;;0.43;0.30;;;21.70;54.00;;;;;;5078472;28;20040;-64
2022/06/15 07:50:52;;;;;;;0.63;0.52;;;21.90;53.90;;;;;;5087663;28;20042;-64
2022/06/15 07:53:17;;;;;;;0.40;0.40;;;22.00;53.60;;;;;;5071238;28;20448;-61
2022/06/15 07:55:45;;;;;;;0.30;0.30;;;22.00;53.50;;;;;;5077582;28;20079;-63
2022/06/15 07:58:11;;;;;;;2.38;0.50;;;22.10;53.50;;;;;;5074701;28;20086;-64
2022/06/15 08:00:40;;;;;;;0.43;0.43;;;22.20;53.50;;;;;;5076642;28;20122;-63
2022/06/15 08:03:06;;;;;;;0.90;0.82;;;22.20;53.30;;;;;;5077482;28;20542;-63
2022/06/15 08:05:39;;;;;;;2.63;0.65;;;22.30;53.00;;;;;;5081732;28;20135;-63
2022/06/15 08:08:06;;;;;;;;;;;22.40;52.70;;;;;;5073714;28;20021;-64
2022/06/15 08:10:34;;;;;;;0.63;0.63;;;22.50;52.50;;;;;;5076241;28;19915;-64
2022/06/15 08:12:59;;;;;;;0.60;0.50;;;22.50;52.20;;;;;;5071250;28;20036;-63
2022/06/15 08:15:25;;;;;;;0.50;0.50;;;22.60;52.30;;;;;;5073682;28;21096;-63
2022/06/15 08:17:56;;;;;;;0.63;0.63;;;22.70;51.90;;;;;;5070018;28;20021;-62
2022/06/15 08:20:26;;;;;;;1.13;0.65;;;22.70;52.00;;;;;;5073024;28;20528;-62
2022/06/15 08:22:55;;;;;;;1.10;0.47;;;22.70;52.00;;;;;;5071108;28;20028;-62
2022/06/15 08:25:28;;;;;;;0.32;0.32;;;22.80;52.10;;;;;;5079569;28;20040;-61
2022/06/15 08:27:54;;;;;;;1.95;0.65;;;22.80;52.70;;;;;;5080214;28;20491;-61
2022/06/15 08:30:21;;;;;;;1.00;0.40;;;22.80;52.00;;;;;;5071748;28;20440;-61
2022/06/15 08:32:48;;;;;;;4.00;0.60;;;22.80;52.40;;;;;;5079989;28;20471;-61
2022/06/15 08:35:14;;;;;;;0.43;0.43;;;22.80;52.40;;;;;;5074269;28;20438;-62
2022/06/15 08:37:39;;;;;;;0.73;0.40;;;22.90;52.40;;;;;;5083171;28;20036;-64
2022/06/15 08:40:06;;;;;;;0.50;0.50;;;22.90;52.20;;;;;;5083851;28;20029;-64
2022/06/15 08:42:55;;;;;;;0.65;0.40;;;23.00;52.00;;;;;;5089447;28;20119;-63
2022/06/15 08:45:35;;;;;;;0.60;0.45;;;23.00;51.50;;;;;;5079116;28;20071;-63
2022/06/15 08:48:12;;;;;;;0.30;0.30;;;23.10;51.40;;;;;;5075116;28;20097;-62
2022/06/15 08:50:59;;;;;;;0.30;0.30;;;23.20;51.50;;;;;;5077877;28;20424;-62
2022/06/15 08:53:53;;;;;;;0.38;0.38;;;23.30;51.50;;;;;;5076241;28;20031;-63
2022/06/15 08:56:43;;;;;;;0.63;0.50;;;23.40;51.40;;;;;;5065230;28;20032;-64
2022/06/15 08:59:41;;;;;;;0.45;0.45;;;23.50;51.20;;;;;;5069816;28;20037;-63
2022/06/15 09:02:21;;;;;;;0.80;0.55;;;23.60;51.10;;;;;;5079385;28;20028;-63
2022/06/15 09:05:02;;;;;;;1.10;0.60;;;23.60;51.00;;;;;;5081087;28;20135;-64
2022/06/15 09:07:46;;;;;;;2.15;0.60;;;23.70;50.90;;;;;;5088503;28;20142;-63
2022/06/15 09:10:33;;;;;;;0.60;0.60;;;23.80;50.60;;;;;;5083307;28;20028;-62
2022/06/15 09:13:11;;;;;;;0.73;0.60;;;23.80;50.30;;;;;;5081517;28;20463;-62
2022/06/15 09:15:45;;;;;;;1.48;0.63;;;23.90;49.90;;;;;;5082033;28;20498;-62
2022/06/15 09:18:22;;;;;;;0.32;0.32;;;24.00;49.80;;;;;;5069703;28;20056;-62
2022/06/15 09:20:53;;;;;;;0.77;0.60;;;24.00;49.70;;;;;;5076136;28;20058;-61
2022/06/15 09:23:29;;;;;;;0.40;0.40;;;24.10;49.70;;;;;;5075052;28;20043;-61
2022/06/15 09:26:00;;;;;;;1.15;0.80;;;24.20;49.50;;;;;;5068125;28;20104;-62
2022/06/15 09:28:34;;;;;;;1.30;0.60;;;24.20;49.30;;;;;;5070697;28;20040;-62
2022/06/15 09:31:06;;;;;;;1.45;0.47;;;24.40;49.20;;;;;;5067336;28;20329;-62
2022/06/15 09:33:39;;;;;;;0.40;0.40;;;24.50;48.90;;;;;;5070693;28;20035;-61
2022/06/15 09:36:12;;;;;;;0.50;0.50;;;24.50;48.50;;;;;;5076257;28;20020;-63
2022/06/15 09:38:39;;;;;;;1.42;1.02;;;24.60;48.10;;;;;;5074033;28;20024;-62
2022/06/15 09:41:12;;;;;;;1.92;0.82;;;24.70;48.10;;;;;;5077423;28;20090;-61
2022/06/15 09:44:03;;;;;;;0.50;0.50;;;24.80;47.10;;;;;;5067346;28;20017;-62
2022/06/15 09:46:53;;;;;;;0.40;0.40;;;24.80;47.20;;;;;;5068326;28;20135;-62
2022/06/15 09:49:48;;;;;;;2.38;0.75;;;24.90;47.30;;;;;;5078470;28;20039;-62
2022/06/15 09:52:29;;;;;;;0.32;0.32;;;24.90;47.30;;;;;;5087301;28;20379;-62
2022/06/15 09:55:08;;;;;;;1.35;0.82;;;25.00;46.60;;;;;;5078205;28;20031;-62
2022/06/15 09:57:35;;;;;;;2.33;0.80;;;25.10;46.60;;;;;;5087384;28;20032;-62
2022/06/15 10:00:06;;;;;;;0.95;0.85;;;25.10;46.20;;;;;;5071004;28;20031;-62
2022/06/15 10:02:36;;;;;;;0.68;0.50;;;25.20;45.60;;;;;;5070808;28;20391;-62
2022/06/15 10:05:06;;;;;;;0.60;0.60;;;25.20;45.50;;;;;;5069017;28;20045;-62
2022/06/15 10:07:43;;;;;;;0.85;0.73;;;25.20;45.60;;;;;;5082293;28;20120;-63
2022/06/15 10:10:18;;;;;;;0.77;0.77;;;25.30;45.90;;;;;;5073356;28;20040;-63
2022/06/15 10:13:07;;;;;;;0.40;0.40;;;25.50;45.90;;;;;;5068022;28;20089;-61
2022/06/15 10:15:42;;;;;;;0.50;0.50;;;25.60;45.70;;;;;;5068632;28;20098;-62
2022/06/15 10:18:35;;;;;;;0.43;0.43;;;25.70;45.50;;;;;;5076670;28;20035;-63
2022/06/15 10:21:13;;;;;;;3.45;0.80;;;25.90;45.10;;;;;;5077595;28;20020;-61
2022/06/15 10:24:01;;;;;;;0.50;0.50;;;26.00;45.10;;;;;;5084056;28;20404;-61
2022/06/15 10:26:35;;;;;;;0.40;0.40;;;26.10;44.60;;;;;;5073629;28;20096;-62
2022/06/15 10:29:18;;;;;;;0.65;0.65;;;26.20;44.70;;;;;;5072745;28;20036;-63
2022/06/15 10:32:23;;;;;;;0.50;0.50;;;26.30;44.60;;;;;;5069911;28;20028;-62
2022/06/15 10:34:51;;;;;;;0.50;0.40;;;26.40;43.90;;;;;;5036665;28;20037;-62
2022/06/15 10:37:34;;;;;;;0.77;0.68;;;26.40;43.90;;;;;;5044902;28;20076;-62
2022/06/15 10:40:17;;;;;;;0.90;0.55;;;26.50;44.10;;;;;;5065899;28;20036;-64
2022/06/15 10:42:50;;;;;;;0.35;0.35;;;26.60;43.20;;;;;;5081371;28;20021;-63
2022/06/15 10:45:23;;;;;;;0.50;0.50;;;26.70;43.30;;;;;;5085174;28;20027;-63
2022/06/15 10:48:03;;;;;;;1.45;0.90;;;26.80;43.50;;;;;;5077855;28;20390;-64
2022/06/15 10:50:34;;;;;;;0.77;0.70;;;26.90;42.70;;;;;;5071619;28;20032;-63
2022/06/15 10:53:06;;;;;;;0.50;0.50;;;27.00;42.60;;;;;;5073231;28;20060;-63
2022/06/15 11:04:11;;;;;;;0.85;0.50;;;27.40;41.40;;;;;;5074830;28;20063;-64
2022/06/15 11:06:49;;;;;;;0.60;0.50;;;27.50;41.70;;;;;;5073050;28;20085;-64
2022/06/15 11:09:27;;;;;;;0.50;0.50;;;27.60;41.30;;;;;;5082426;28;20020;-63
2022/06/15 11:11:53;;;;;;;0.60;0.60;;;27.60;41.30;;;;;;5082073;28;20036;-64
2022/06/15 11:14:30;;;;;;;1.35;0.90;;;27.70;41.10;;;;;;5078125;28;20137;-62
2022/06/15 11:20:08;;;;;;;0.40;0.40;;;27.90;41.10;;;;;;5083687;28;20035;-62
2022/06/15 11:22:34;;;;;;;0.80;0.60;;;28.00;40.50;;;;;;5085321;28;20039;-63
2022/06/15 11:25:09;;;;;;;0.88;0.70;;;28.10;40.50;;;;;;5082450;28;20063;-64
2022/06/15 11:27:44;;;;;;;0.60;0.60;;;28.20;40.60;;;;;;5079735;28;20028;-63
2022/06/15 11:30:28;;;;;;;0.73;0.63;;;28.20;40.60;;;;;;5084553;28;20028;-62
2022/06/15 11:32:59;;;;;;;0.57;0.50;;;28.30;39.60;;;;;;5085138;28;20073;-62
2022/06/15 11:35:33;;;;;;;0.40;0.40;;;28.20;39.80;;;;;;5075385;28;20107;-62
2022/06/15 11:38:25;;;;;;;2.65;1.00;;;28.30;40.00;;;;;;5076105;28;20032;-61
2022/06/15 11:40:54;;;;;;;0.80;0.80;;;28.40;40.00;;;;;;5065344;28;20040;-62
2022/06/15 11:43:41;;;;;;;0.40;0.40;;;28.60;40.00;;;;;;5080842;28;20099;-62
2022/06/15 11:46:37;;;;;;;0.98;0.90;;;28.70;40.10;;;;;;5080544;28;20429;-61
2022/06/15 11:49:23;;;;;;;0.60;0.60;;;28.90;40.10;;;;;;5083626;28;20028;-62
2022/06/15 11:52:18;;;;;;;0.65;0.65;;;28.90;39.80;;;;;;5083353;28;20070;-62
2022/06/15 11:54:52;;;;;;;0.60;0.60;;;29.10;39.50;;;;;;5055120;28;20044;-62
2022/06/15 11:57:25;;;;;;;0.75;0.70;;;29.20;39.80;;;;;;5090547;28;20036;-62
2022/06/15 12:00:16;;;;;;;0.50;0.50;;;29.20;39.20;;;;;;5084696;28;20422;-62
2022/06/15 12:03:17;;;;;;;0.50;0.40;;;29.40;40.00;;;;;;5078015;28;20505;-62
2022/06/15 12:05:47;;;;;;;0.40;0.40;;;29.50;39.30;;;;;;5078839;28;20052;-62
2022/06/15 12:08:34;;;;;;;0.80;0.80;;;29.60;39.20;;;;;;5080902;28;20024;-62
2022/06/15 12:14:09;;;;;;;2.22;1.08;;;29.80;38.80;;;;;;5085830;28;20083;-62
2022/06/15 12:16:45;;;;;;;0.77;0.77;;;29.80;38.30;;;;;;5088382;28;20034;-62
2022/06/15 12:19:36;;;;;;;0.60;0.60;;;29.80;38.10;;;;;;5083280;28;20039;-60
2022/06/15 12:22:09;;;;;;;1.90;1.00;;;29.80;38.10;;;;;;5068788;28;20127;-62
2022/06/15 12:24:53;;;;;;;1.13;0.70;;;29.90;37.50;;;;;;5086294;28;20506;-63
2022/06/15 12:27:44;;;;;;;0.70;0.70;;;30.00;37.80;;;;;;5087117;28;20028;-62
2022/06/15 12:30:17;;;;;;;0.83;0.83;;;30.00;37.50;;;;;;5068567;28;20060;-64
2022/06/15 12:32:49;;;;;;;0.85;0.85;;;30.20;37.50;;;;;;5081918;28;20025;-62
2022/06/15 12:35:50;;;;;;;0.60;0.60;;;30.40;37.60;;;;;;5087317;28;20108;-64
2022/06/15 12:38:29;;;;;;;0.50;0.50;;;30.50;37.30;;;;;;5088434;28;20031;-62
2022/06/15 12:42:09;;;;;;;0.60;0.60;;;30.50;36.80;;;;;;5088062;28;20348;-64
2022/06/15 12:43:54;;;;;;;0.70;0.70;;;30.50;36.20;;;;;;5086423;28;20032;-63
2022/06/15 12:46:20;;;;;;;0.85;0.70;;;30.60;36.50;;;;;;5087729;28;20260;-63
2022/06/15 12:49:11;;;;;;;0.60;0.60;;;30.60;36.00;;;;;;5095501;28;20027;-61
2022/06/15 12:51:58;;;;;;;1.02;0.82;;;30.70;36.20;;;;;;5088758;28;20380;-62
2022/06/15 12:54:24;;;;;;;0.88;0.70;;;30.80;35.90;;;;;;5083904;28;20020;-62
2022/06/15 12:56:52;;;;;;;3.72;0.80;;;30.90;35.80;;;;;;5090919;28;20813;-63
2022/06/15 12:59:36;;;;;;;0.88;0.52;;;31.00;36.00;;;;;;5085505;28;20122;-63
2022/06/15 13:02:10;;;;;;;0.57;0.50;;;31.10;36.00;;;;;;5091583;28;20485;-62
2022/06/15 13:04:47;;;;;;;0.40;0.40;;;31.20;35.40;;;;;;5085227;28;20048;-63
2022/06/15 13:07:27;;;;;;;1.10;0.90;;;31.20;35.60;;;;;;5084421;28;20016;-63
2022/06/15 13:10:08;;;;;;;0.60;0.60;;;31.20;35.50;;;;;;5084782;28;20435;-61
2022/06/15 13:12:48;;;;;;;3.63;0.77;;;31.10;35.00;;;;;;5085705;28;20031;-62
2022/06/15 13:15:28;;;;;;;0.60;0.60;;;31.10;35.10;;;;;;5085827;28;20089;-62
2022/06/15 13:18:14;;;;;;;0.60;0.60;;;31.20;35.00;;;;;;5086446;28;20028;-62
2022/06/15 13:20:46;;;;;;;0.43;0.43;;;31.30;35.20;;;;;;5097969;28;20545;-62
2022/06/15 13:23:39;;;;;;;0.60;0.60;;;31.50;35.40;;;;;;5083748;28;20035;-62
2022/06/15 13:26:24;;;;;;;1.55;0.90;;;31.50;34.50;;;;;;5081431;28;20046;-63
2022/06/15 13:29:02;;;;;;;2.95;0.68;;;31.50;34.50;;;;;;5068330;28;20375;-62
2022/06/15 13:31:44;;;;;;;0.80;0.80;;;31.60;35.50;;;;;;5086502;28;20032;-62
2022/06/15 13:34:33;;;;;;;1.05;0.60;;;31.70;34.80;;;;;;5077881;28;20027;-62